Flight Track Log - Related Links

Times and Time Zones

All times are in EDT time to prevent confusion due to time zone crossing. See the N137TK flight status page for this flight to view local times or setup timezone preferences in your user account.


Time Position Orientation Groundspeed Altitude Reporting Facility
EDT Latitude Longitude Course Direction KTS MPH feet Rate Location/Type
Mon 09:41:18 AM 32.4933 -80.5403 41° Northeast 167 192 5,700  Level Jacksonville Center
Mon 09:42:18 AM 32.5281 -80.4975 46° Northeast 170 196 7,100 1,462 Climbing Jacksonville Center
Mon 09:43:17 AM 32.5669 -80.4547 43° Northeast 192 221 8,600 1,513 Climbing Jacksonville Center
Mon 09:44:17 AM 32.6014 -80.3994 54° Northeast 203 234 10,100 1,488 Climbing Jacksonville Center
Mon 09:45:00 AM 32.6627 -80.3115 45° Northeast  Level FlightAware Approximate
Mon 09:45:18 AM 32.6400 -80.3542 45° Northeast 203 234 11,600  Level Jacksonville Center
Mon 09:46:17 AM 32.6808 -80.3036 46° Northeast 203 234 12,900 1,261 Climbing Jacksonville Center
Mon 09:47:17 AM 32.7214 -80.2531 46° Northeast 197 227 14,100 1,200 Climbing Jacksonville Center
Mon 09:48:17 AM 32.7622 -80.2025 46° Northeast 197 227 15,300 1,200 Climbing Jacksonville Center
Mon 09:49:17 AM 32.8028 -80.1542 45° Northeast 197 227 16,500 1,250 Climbing Jacksonville Center
Mon 09:50:17 AM 32.8475 -80.0986 46° Northeast 197 227 17,800 1,050 Climbing Jacksonville Center
Mon 09:51:17 AM 32.8861 -80.0478 48° Northeast 197 227 18,600 950 Climbing Jacksonville Center
Mon 09:52:17 AM 32.9289 -80.0019 42° Northeast 197 227 19,700 1,000 Climbing Jacksonville Center
Mon 09:53:17 AM 32.9717 -79.9608 39° Northeast 197 227 20,600 900 Climbing Jacksonville Center
Mon 09:54:17 AM 33.0167 -79.9175 39° Northeast 197 227 21,500 900 Climbing Jacksonville Center
Mon 09:55:17 AM 33.0617 -79.8761 38° Northeast 203 234 22,400 750 Climbing Jacksonville Center
Mon 09:56:17 AM 33.1064 -79.8325 39° Northeast 203 234 23,000 298 Climbing Jacksonville Center
Mon 09:57:18 AM 33.1575 -79.7836 39° Northeast 208 239 23,000  Level Jacksonville Center
Mon 09:58:17 AM 33.2106 -79.7322 39° Northeast 227 261 23,000  Level Jacksonville Center
Mon 09:59:17 AM 33.2653 -79.6781 40° Northeast 242 278 23,000  Level Jacksonville Center
Mon 10:00:17 AM 33.3206 -79.6264 38° Northeast 248 285 23,000  Level Jacksonville Center
Mon 10:01:18 AM 33.3753 -79.5722 40° Northeast 248 285 23,000  Level Jacksonville Center
Mon 10:02:17 AM 33.4303 -79.5178 40° Northeast 248 285 23,000  Level Jacksonville Center
Mon 10:03:17 AM 33.4872 -79.4633 39° Northeast 253 291 23,000  Level Jacksonville Center
Mon 10:04:17 AM 33.5442 -79.4089 39° Northeast 253 291 23,000  Level Jacksonville Center
Mon 10:05:17 AM 33.5989 -79.3542 40° Northeast 253 291 23,000  Level Jacksonville Center
Mon 10:06:18 AM 33.6536 -79.2972 41° Northeast 253 291 23,000  Level Jacksonville Center
Mon 10:07:18 AM 33.7086 -79.2425 40° Northeast 253 291 23,000  Level Jacksonville Center
Mon 10:08:17 AM 33.7572 -79.2006 36° Northeast 248 285 23,000  Level Jacksonville Center
Mon 10:09:18 AM 33.8100 -79.1433 42° Northeast 253 291 23,000  Level Jacksonville Center
Mon 10:10:17 AM 33.8667 -79.0883 39° Northeast 253 291 23,000  Level Jacksonville Center
Mon 10:11:17 AM 33.9214 -79.0361 38° Northeast 253 291 23,000  Level Jacksonville Center
Mon 10:12:18 AM 33.9781 -78.9808 39° Northeast 253 291 23,000  Level Jacksonville Center
Mon 10:14:17 AM 34.0853 -78.8717 40° Northeast 251 289 23,000  Level Washington Center
Mon 10:15:18 AM 34.1408 -78.8161 40° Northeast 251 289 23,000  Level Washington Center
Mon 10:16:19 AM 34.1967 -78.7606 39° Northeast 256 295 23,000  Level Washington Center
Mon 10:17:19 AM 34.2522 -78.7050 40° Northeast 256 295 23,000  Level Washington Center
Mon 10:18:17 AM 34.3058 -78.6517 39° Northeast 256 295 23,000  Level Washington Center
Mon 10:19:19 AM 34.3594 -78.6008 38° Northeast 256 295 23,000  Level Washington Center
Mon 10:20:29 AM 34.4150 -78.5450 40° Northeast 250 288 23,000  Level Washington Center
Mon 10:21:29 AM 34.4792 -78.4792 40° Northeast 244 281 23,000  Level Washington Center
Mon 10:22:31 AM 34.5306 -78.4281 39° Northeast 244 281 23,000  Level Washington Center
Mon 10:23:31 AM 34.5861 -78.3719 40° Northeast 249 287 23,000  Level Washington Center
Mon 10:24:30 AM 34.6417 -78.3133 41° Northeast 239 275 23,000  Level Washington Center
Mon 10:25:30 AM 34.6950 -78.2594 40° Northeast 239 275 23,000  Level Washington Center
Mon 10:26:31 AM 34.7461 -78.2081 40° Northeast 239 275 23,000  Level Washington Center
Mon 10:27:29 AM 34.8017 -78.1517 40° Northeast 239 275 23,000  Level Washington Center
Mon 10:28:29 AM 34.8444 -78.1000 45° Northeast 239 275 23,000  Level Washington Center
Mon 10:29:31 AM 34.9000 -78.0458 39° Northeast 239 275 23,000  Level Washington Center
Mon 10:30:29 AM 34.9406 -78.0014 42° Northeast 239 275 23,000  Level Washington Center
Mon 10:31:29 AM 35.0022 -77.9375 40° Northeast 239 275 23,000  Level Washington Center
Mon 10:32:30 AM 35.0556 -77.8831 40° Northeast 239 275 23,000  Level Washington Center
Mon 10:33:30 AM 35.1086 -77.8289 40° Northeast 239 275 23,000  Level Washington Center
Mon 10:34:30 AM 35.1639 -77.7719 40° Northeast 239 275 23,000  Level Washington Center
Mon 10:35:31 AM 35.2150 -77.7175 41° Northeast 239 275 23,000  Level Washington Center
Mon 10:36:32 AM 35.2700 -77.6656 38° Northeast 239 275 23,000  Level Washington Center
Mon 10:37:29 AM 35.3233 -77.6083 41° Northeast 239 275 23,000  Level Washington Center
Mon 10:38:30 AM 35.3783 -77.5511 40° Northeast 239 275 23,000  Level Washington Center
Mon 10:39:30 AM 35.4356 -77.5014 35° Northeast 239 275 23,000  Level Washington Center
Mon 10:40:29 AM 35.4967 -77.4594 29° Northeast 245 282 23,000  Level Washington Center
Mon 10:41:30 AM 35.5619 -77.4228 25° Northeast 245 282 23,000  Level Washington Center
Mon 10:42:31 AM 35.6294 -77.3733 31° Northeast 250 288 23,000  Level Washington Center
Mon 10:43:31 AM 35.6867 -77.3233 35° Northeast 250 288 23,000  Level Washington Center
Mon 10:44:31 AM 35.7417 -77.2708 38° Northeast 250 288 23,000  Level Washington Center
Mon 10:45:29 AM 35.7986 -77.2208 35° Northeast 250 288 23,000  Level Washington Center
Mon 10:46:29 AM 35.8597 -77.1681 35° Northeast 250 288 23,000  Level Washington Center
Mon 10:47:30 AM 35.9128 -77.1153 39° Northeast 250 288 23,000  Level Washington Center
Mon 10:48:31 AM 35.9675 -77.0600 39° Northeast 250 288 23,000  Level Washington Center
Mon 10:49:31 AM 36.0244 -77.0122 34° Northeast 255 293 23,000  Level Washington Center
Mon 10:50:29 AM 36.0814 -76.9592 37° Northeast 249 287 23,000  Level Washington Center
Mon 10:51:11 AM 36.1194 -76.9264 35° Northeast 254 292 23,000  Level Washington Center
Mon 10:52:13 AM 36.1764 -76.8786 34° Northeast 256 295 23,000  Level Washington Center
Mon 10:53:13 AM 36.2375 -76.8203 38° Northeast 255 293 23,000  Level Washington Center
Mon 10:54:15 AM 36.2942 -76.7644 38° Northeast 255 293 23,000  Level Washington Center
Mon 10:55:15 AM 36.3511 -76.7111 37° Northeast 256 295 23,000  Level Washington Center
Mon 10:56:16 AM 36.4100 -76.6606 35° Northeast 256 295 23,000  Level Washington Center
Mon 10:57:23 AM 36.4711 -76.5994 39° Northeast 258 297 23,000  Level Washington Center
Mon 10:58:30 AM 36.5361 -76.5356 38° Northeast 254 292 23,000  Level Washington Center
Mon 10:59:31 AM 36.5931 -76.4844 36° Northeast 254 292 23,000  Level Washington Center
Mon 11:00:25 AM 36.6433 -76.4383 36° Northeast 252 290 23,000  Level Washington Center
Mon 11:01:31 AM 36.7064 -76.3794 37° Northeast 253 291 23,000 -694 Level Washington Center
Mon 11:02:26 AM 36.7608 -76.3308 36° Northeast 274 315 21,600 -1,617 Descending Washington Center
Mon 11:03:26 AM 36.8300 -76.2639 38° Northeast 300 345 19,900 -1,686 Descending Washington Center
Mon 11:04:27 AM 36.8992 -76.2047 34° Northeast 306 352 18,200 -1,537 Descending Washington Center
Mon 11:05:27 AM 36.9725 -76.1614 25° Northeast 301 346 16,800 -1,548 Descending Washington Center
Mon 11:06:31 AM 37.0519 -76.1203 22° Northeast 296 341 15,000 -1,694 Descending Washington Center
Mon 11:07:31 AM 37.1250 -76.0817 23° Northeast 289 333 13,300 -1,617 Descending Washington Center
Mon 11:08:26 AM 37.1919 -76.0428 25° Northeast 283 326 11,900 -1,540 Descending Washington Center
Mon 11:09:24 AM 37.2653 -75.9989 25° Northeast 284 327 10,400 -1,552 Descending Washington Center
Mon 11:11:00 AM 37.3581 -75.9335 24° Northeast  Level FlightAware Approximate
Mon 11:18:00 AM 37.6333 -75.7500 38° Northeast  Level FlightAware Approximate
Mon 11:19:00 AM 37.6469 -75.7611 38° Northeast  Level Estimated
Mon 11:20:00 AM 37.6469 -75.7611 38° Northeast  Level Estimated

Login

Don't have an account? Register now (free) for customized features, flight alerts, and more!